sensor_id;sensor_type;location;lat;lon;timestamp;P1;durP1;ratioP1;P2;durP2;ratioP2
51616;SDS011;37697;52.588;13.394;2023-12-20T00:03:24;6.60;;;5.60;;
51616;SDS011;37697;52.588;13.394;2023-12-20T00:08:50;6.40;;;5.20;;
51616;SDS011;37697;52.588;13.394;2023-12-20T00:14:15;7.90;;;6.20;;
51616;SDS011;37697;52.588;13.394;2023-12-20T00:19:41;6.60;;;5.60;;
51616;SDS011;37697;52.588;13.394;2023-12-20T00:25:07;6.30;;;5.30;;
51616;SDS011;37697;52.588;13.394;2023-12-20T00:30:33;6.60;;;5.60;;
51616;SDS011;37697;52.588;13.394;2023-12-20T00:35:59;5.50;;;4.50;;
51616;SDS011;37697;52.588;13.394;2023-12-20T00:41:25;6.60;;;5.50;;
51616;SDS011;37697;52.588;13.394;2023-12-20T00:46:50;7.00;;;5.80;;
51616;SDS011;37697;52.588;13.394;2023-12-20T00:52:16;6.80;;;5.10;;
51616;SDS011;37697;52.588;13.394;2023-12-20T00:57:42;6.10;;;4.70;;
51616;SDS011;37697;52.588;13.394;2023-12-20T01:03:07;5.80;;;4.70;;
51616;SDS011;37697;52.588;13.394;2023-12-20T01:08:33;6.70;;;5.50;;
51616;SDS011;37697;52.588;13.394;2023-12-20T01:13:59;6.50;;;5.10;;
51616;SDS011;37697;52.588;13.394;2023-12-20T01:19:25;6.20;;;5.30;;
51616;SDS011;37697;52.588;13.394;2023-12-20T01:24:51;5.90;;;5.00;;
51616;SDS011;37697;52.588;13.394;2023-12-20T01:30:17;6.40;;;5.00;;
51616;SDS011;37697;52.588;13.394;2023-12-20T01:35:43;7.80;;;4.90;;
51616;SDS011;37697;52.588;13.394;2023-12-20T01:41:08;6.10;;;4.90;;
51616;SDS011;37697;52.588;13.394;2023-12-20T01:46:34;5.10;;;3.90;;
51616;SDS011;37697;52.588;13.394;2023-12-20T01:52:00;6.50;;;3.70;;
51616;SDS011;37697;52.588;13.394;2023-12-20T01:57:26;4.60;;;3.40;;
51616;SDS011;37697;52.588;13.394;2023-12-20T02:02:53;5.90;;;4.20;;
51616;SDS011;37697;52.588;13.394;2023-12-20T02:08:19;5.50;;;4.00;;
51616;SDS011;37697;52.588;13.394;2023-12-20T02:13:45;4.60;;;3.40;;
51616;SDS011;37697;52.588;13.394;2023-12-20T02:19:12;6.90;;;3.00;;
51616;SDS011;37697;52.588;13.394;2023-12-20T02:24:40;3.30;;;2.10;;
51616;SDS011;37697;52.588;13.394;2023-12-20T02:30:07;4.30;;;2.30;;
51616;SDS011;37697;52.588;13.394;2023-12-20T02:35:34;2.90;;;1.80;;
51616;SDS011;37697;52.588;13.394;2023-12-20T02:40:59;4.90;;;1.90;;
51616;SDS011;37697;52.588;13.394;2023-12-20T02:46:25;3.80;;;1.70;;
51616;SDS011;37697;52.588;13.394;2023-12-20T02:51:51;2.50;;;1.50;;
51616;SDS011;37697;52.588;13.394;2023-12-20T02:57:17;3.90;;;1.40;;
51616;SDS011;37697;52.588;13.394;2023-12-20T03:02:43;4.00;;;1.50;;
51616;SDS011;37697;52.588;13.394;2023-12-20T03:08:08;5.10;;;2.60;;
51616;SDS011;37697;52.588;13.394;2023-12-20T03:13:35;3.50;;;1.90;;
51616;SDS011;37697;52.588;13.394;2023-12-20T03:19:01;5.20;;;1.30;;
51616;SDS011;37697;52.588;13.394;2023-12-20T03:24:27;5.60;;;1.40;;
51616;SDS011;37697;52.588;13.394;2023-12-20T03:29:53;3.60;;;1.50;;
51616;SDS011;37697;52.588;13.394;2023-12-20T03:35:19;6.70;;;1.80;;
51616;SDS011;37697;52.588;13.394;2023-12-20T03:40:44;4.60;;;1.60;;
51616;SDS011;37697;52.588;13.394;2023-12-20T03:46:10;7.60;;;1.60;;
51616;SDS011;37697;52.588;13.394;2023-12-20T03:51:36;5.50;;;1.20;;
51616;SDS011;37697;52.588;13.394;2023-12-20T03:57:02;3.90;;;1.30;;
51616;SDS011;37697;52.588;13.394;2023-12-20T04:02:28;7.20;;;2.20;;
51616;SDS011;37697;52.588;13.394;2023-12-20T04:07:54;6.40;;;1.60;;
51616;SDS011;37697;52.588;13.394;2023-12-20T04:13:19;7.30;;;1.60;;
51616;SDS011;37697;52.588;13.394;2023-12-20T04:18:45;5.40;;;1.50;;
51616;SDS011;37697;52.588;13.394;2023-12-20T04:24:11;4.70;;;1.80;;
51616;SDS011;37697;52.588;13.394;2023-12-20T04:29:37;7.00;;;1.70;;
51616;SDS011;37697;52.588;13.394;2023-12-20T04:35:03;6.50;;;1.90;;
51616;SDS011;37697;52.588;13.394;2023-12-20T04:40:29;5.20;;;1.30;;
51616;SDS011;37697;52.588;13.394;2023-12-20T04:45:55;6.70;;;1.50;;
51616;SDS011;37697;52.588;13.394;2023-12-20T04:51:21;5.70;;;1.20;;
51616;SDS011;37697;52.588;13.394;2023-12-20T04:56:47;6.10;;;1.30;;
51616;SDS011;37697;52.588;13.394;2023-12-20T05:02:13;7.30;;;1.60;;
51616;SDS011;37697;52.588;13.394;2023-12-20T05:07:39;9.00;;;1.70;;
51616;SDS011;37697;52.588;13.394;2023-12-20T05:13:05;6.60;;;1.50;;
51616;SDS011;37697;52.588;13.394;2023-12-20T05:18:44;4.70;;;1.90;;
51616;SDS011;37697;52.588;13.394;2023-12-20T05:24:11;10.00;;;1.70;;
51616;SDS011;37697;52.588;13.394;2023-12-20T05:29:37;5.80;;;1.40;;
51616;SDS011;37697;52.588;13.394;2023-12-20T05:35:03;9.20;;;1.90;;
51616;SDS011;37697;52.588;13.394;2023-12-20T05:40:30;8.20;;;2.00;;
51616;SDS011;37697;52.588;13.394;2023-12-20T05:45:55;10.20;;;2.00;;
51616;SDS011;37697;52.588;13.394;2023-12-20T05:51:21;8.20;;;1.60;;
51616;SDS011;37697;52.588;13.394;2023-12-20T05:56:47;6.30;;;1.90;;
51616;SDS011;37697;52.588;13.394;2023-12-20T06:02:13;7.10;;;1.60;;
51616;SDS011;37697;52.588;13.394;2023-12-20T06:07:38;9.50;;;1.50;;
51616;SDS011;37697;52.588;13.394;2023-12-20T06:12:55;9.30;;;1.90;;
51616;SDS011;37697;52.588;13.394;2023-12-20T06:18:21;12.10;;;2.10;;
51616;SDS011;37697;52.588;13.394;2023-12-20T06:23:47;7.70;;;2.30;;
51616;SDS011;37697;52.588;13.394;2023-12-20T06:29:13;11.40;;;2.10;;
51616;SDS011;37697;52.588;13.394;2023-12-20T06:34:38;6.30;;;2.00;;
51616;SDS011;37697;52.588;13.394;2023-12-20T06:40:05;12.50;;;2.10;;
51616;SDS011;37697;52.588;13.394;2023-12-20T06:45:33;9.40;;;2.30;;
51616;SDS011;37697;52.588;13.394;2023-12-20T06:51:00;9.00;;;2.00;;
51616;SDS011;37697;52.588;13.394;2023-12-20T06:56:26;7.40;;;1.80;;
51616;SDS011;37697;52.588;13.394;2023-12-20T07:01:52;8.80;;;2.20;;
51616;SDS011;37697;52.588;13.394;2023-12-20T07:07:18;9.90;;;2.00;;
51616;SDS011;37697;52.588;13.394;2023-12-20T07:12:44;8.60;;;2.00;;
51616;SDS011;37697;52.588;13.394;2023-12-20T07:18:01;10.60;;;2.60;;
51616;SDS011;37697;52.588;13.394;2023-12-20T07:23:27;6.00;;;2.00;;
51616;SDS011;37697;52.588;13.394;2023-12-20T07:28:53;11.30;;;2.60;;
51616;SDS011;37697;52.588;13.394;2023-12-20T07:34:18;7.20;;;2.40;;
51616;SDS011;37697;52.588;13.394;2023-12-20T07:39:45;9.40;;;2.40;;
51616;SDS011;37697;52.588;13.394;2023-12-20T07:45:11;7.30;;;2.00;;
51616;SDS011;37697;52.588;13.394;2023-12-20T07:50:37;9.20;;;2.60;;
51616;SDS011;37697;52.588;13.394;2023-12-20T07:56:02;8.40;;;2.10;;
51616;SDS011;37697;52.588;13.394;2023-12-20T08:01:39;6.70;;;1.80;;
51616;SDS011;37697;52.588;13.394;2023-12-20T08:07:05;10.70;;;2.30;;
51616;SDS011;37697;52.588;13.394;2023-12-20T08:12:31;8.10;;;2.10;;
51616;SDS011;37697;52.588;13.394;2023-12-20T08:17:57;8.70;;;2.30;;
51616;SDS011;37697;52.588;13.394;2023-12-20T08:23:22;8.30;;;1.90;;
51616;SDS011;37697;52.588;13.394;2023-12-20T08:28:48;10.80;;;2.00;;
51616;SDS011;37697;52.588;13.394;2023-12-20T08:34:15;9.10;;;2.00;;
51616;SDS011;37697;52.588;13.394;2023-12-20T08:39:41;9.50;;;2.50;;
51616;SDS011;37697;52.588;13.394;2023-12-20T08:45:08;8.20;;;2.10;;
51616;SDS011;37697;52.588;13.394;2023-12-20T08:50:34;10.80;;;3.50;;
51616;SDS011;37697;52.588;13.394;2023-12-20T08:56:00;7.40;;;1.80;;
51616;SDS011;37697;52.588;13.394;2023-12-20T09:01:26;7.70;;;2.20;;
51616;SDS011;37697;52.588;13.394;2023-12-20T09:06:52;10.00;;;1.90;;
51616;SDS011;37697;52.588;13.394;2023-12-20T09:12:18;9.80;;;2.00;;
51616;SDS011;37697;52.588;13.394;2023-12-20T09:17:44;8.10;;;1.70;;
51616;SDS011;37697;52.588;13.394;2023-12-20T09:23:11;6.40;;;1.70;;
51616;SDS011;37697;52.588;13.394;2023-12-20T09:28:36;8.90;;;1.90;;
51616;SDS011;37697;52.588;13.394;2023-12-20T09:34:02;6.40;;;1.70;;
51616;SDS011;37697;52.588;13.394;2023-12-20T09:39:28;10.30;;;2.10;;
51616;SDS011;37697;52.588;13.394;2023-12-20T09:44:55;5.30;;;1.90;;
51616;SDS011;37697;52.588;13.394;2023-12-20T09:50:25;8.50;;;1.80;;
51616;SDS011;37697;52.588;13.394;2023-12-20T09:55:56;11.00;;;1.80;;
51616;SDS011;37697;52.588;13.394;2023-12-20T10:01:23;9.30;;;2.10;;
51616;SDS011;37697;52.588;13.394;2023-12-20T10:06:50;10.00;;;2.10;;
51616;SDS011;37697;52.588;13.394;2023-12-20T10:12:16;8.70;;;1.80;;
51616;SDS011;37697;52.588;13.394;2023-12-20T10:17:41;8.10;;;2.00;;
51616;SDS011;37697;52.588;13.394;2023-12-20T10:23:07;5.80;;;1.90;;
51616;SDS011;37697;52.588;13.394;2023-12-20T10:28:34;11.80;;;3.10;;
51616;SDS011;37697;52.588;13.394;2023-12-20T10:34:00;10.20;;;1.90;;
51616;SDS011;37697;52.588;13.394;2023-12-20T10:39:27;10.60;;;2.40;;
51616;SDS011;37697;52.588;13.394;2023-12-20T10:44:53;9.20;;;2.00;;
51616;SDS011;37697;52.588;13.394;2023-12-20T10:50:19;8.70;;;1.80;;
51616;SDS011;37697;52.588;13.394;2023-12-20T10:55:45;10.70;;;2.40;;
51616;SDS011;37697;52.588;13.394;2023-12-20T11:01:14;10.50;;;2.20;;
51616;SDS011;37697;52.588;13.394;2023-12-20T11:06:42;14.30;;;2.40;;
51616;SDS011;37697;52.588;13.394;2023-12-20T11:12:15;8.20;;;1.50;;
51616;SDS011;37697;52.588;13.394;2023-12-20T11:17:38;6.30;;;1.80;;
51616;SDS011;37697;52.588;13.394;2023-12-20T11:22:52;13.70;;;3.00;;
51616;SDS011;37697;52.588;13.394;2023-12-20T11:28:22;8.90;;;2.10;;
51616;SDS011;37697;52.588;13.394;2023-12-20T11:33:49;7.60;;;1.90;;
51616;SDS011;37697;52.588;13.394;2023-12-20T11:39:19;8.40;;;2.30;;
51616;SDS011;37697;52.588;13.394;2023-12-20T11:44:40;11.50;;;2.30;;
51616;SDS011;37697;52.588;13.394;2023-12-20T11:50:08;6.50;;;1.50;;
51616;SDS011;37697;52.588;13.394;2023-12-20T11:55:34;11.50;;;2.40;;
51616;SDS011;37697;52.588;13.394;2023-12-20T12:01:00;14.00;;;2.50;;
51616;SDS011;37697;52.588;13.394;2023-12-20T12:06:27;10.50;;;2.60;;
51616;SDS011;37697;52.588;13.394;2023-12-20T12:11:53;15.30;;;3.30;;
51616;SDS011;37697;52.588;13.394;2023-12-20T12:17:15;10.40;;;2.30;;
51616;SDS011;37697;52.588;13.394;2023-12-20T12:22:41;8.80;;;1.90;;
51616;SDS011;37697;52.588;13.394;2023-12-20T12:28:07;12.40;;;2.70;;
51616;SDS011;37697;52.588;13.394;2023-12-20T12:33:33;6.60;;;1.70;;
51616;SDS011;37697;52.588;13.394;2023-12-20T12:38:59;9.50;;;2.10;;
51616;SDS011;37697;52.588;13.394;2023-12-20T12:44:28;6.90;;;1.80;;
51616;SDS011;37697;52.588;13.394;2023-12-20T12:49:54;7.60;;;2.20;;
51616;SDS011;37697;52.588;13.394;2023-12-20T12:55:20;8.00;;;2.20;;
51616;SDS011;37697;52.588;13.394;2023-12-20T13:00:46;11.40;;;2.00;;
51616;SDS011;37697;52.588;13.394;2023-12-20T13:06:12;9.00;;;2.40;;
51616;SDS011;37697;52.588;13.394;2023-12-20T13:11:38;6.00;;;1.80;;
51616;SDS011;37697;52.588;13.394;2023-12-20T13:17:05;6.10;;;1.80;;
51616;SDS011;37697;52.588;13.394;2023-12-20T13:22:34;6.10;;;1.60;;
51616;SDS011;37697;52.588;13.394;2023-12-20T13:27:53;5.50;;;1.80;;
51616;SDS011;37697;52.588;13.394;2023-12-20T13:33:27;6.50;;;1.50;;
51616;SDS011;37697;52.588;13.394;2023-12-20T13:38:53;3.40;;;1.30;;
51616;SDS011;37697;52.588;13.394;2023-12-20T13:44:12;3.80;;;1.10;;
51616;SDS011;37697;52.588;13.394;2023-12-20T13:49:38;2.20;;;0.80;;
51616;SDS011;37697;52.588;13.394;2023-12-20T13:54:43;3.70;;;1.00;;
51616;SDS011;37697;52.588;13.394;2023-12-20T14:00:10;1.30;;;0.70;;
51616;SDS011;37697;52.588;13.394;2023-12-20T14:05:38;4.10;;;0.90;;
51616;SDS011;37697;52.588;13.394;2023-12-20T14:11:04;1.70;;;0.60;;
51616;SDS011;37697;52.588;13.394;2023-12-20T14:16:22;1.90;;;1.20;;
51616;SDS011;37697;52.588;13.394;2023-12-20T14:21:48;1.50;;;0.70;;
51616;SDS011;37697;52.588;13.394;2023-12-20T14:27:14;4.40;;;0.70;;
51616;SDS011;37697;52.588;13.394;2023-12-20T14:32:40;4.50;;;0.70;;
51616;SDS011;37697;52.588;13.394;2023-12-20T14:38:06;3.20;;;0.70;;
51616;SDS011;37697;52.588;13.394;2023-12-20T14:43:32;3.10;;;0.80;;
51616;SDS011;37697;52.588;13.394;2023-12-20T14:48:50;2.70;;;0.80;;
51616;SDS011;37697;52.588;13.394;2023-12-20T14:54:06;2.70;;;0.90;;
51616;SDS011;37697;52.588;13.394;2023-12-20T14:59:20;2.10;;;0.30;;
51616;SDS011;37697;52.588;13.394;2023-12-20T15:04:46;2.50;;;0.70;;
51616;SDS011;37697;52.588;13.394;2023-12-20T15:10:12;3.70;;;0.80;;
51616;SDS011;37697;52.588;13.394;2023-12-20T15:15:38;3.10;;;0.80;;
51616;SDS011;37697;52.588;13.394;2023-12-20T15:20:49;3.10;;;1.00;;
51616;SDS011;37697;52.588;13.394;2023-12-20T15:26:15;5.30;;;1.10;;
51616;SDS011;37697;52.588;13.394;2023-12-20T15:31:43;5.40;;;1.20;;
51616;SDS011;37697;52.588;13.394;2023-12-20T15:37:09;6.70;;;1.50;;
51616;SDS011;37697;52.588;13.394;2023-12-20T15:42:35;5.50;;;1.90;;
51616;SDS011;37697;52.588;13.394;2023-12-20T15:48:02;4.20;;;1.10;;
51616;SDS011;37697;52.588;13.394;2023-12-20T15:53:21;4.90;;;1.40;;
51616;SDS011;37697;52.588;13.394;2023-12-20T15:58:47;5.30;;;1.10;;
51616;SDS011;37697;52.588;13.394;2023-12-20T16:04:03;5.00;;;1.30;;
51616;SDS011;37697;52.588;13.394;2023-12-20T16:09:29;3.10;;;1.60;;
51616;SDS011;37697;52.588;13.394;2023-12-20T16:14:55;7.60;;;1.40;;
51616;SDS011;37697;52.588;13.394;2023-12-20T16:20:21;8.90;;;1.40;;
51616;SDS011;37697;52.588;13.394;2023-12-20T16:25:46;4.90;;;1.20;;
51616;SDS011;37697;52.588;13.394;2023-12-20T16:31:12;4.60;;;1.40;;
51616;SDS011;37697;52.588;13.394;2023-12-20T16:36:49;11.60;;;1.60;;
51616;SDS011;37697;52.588;13.394;2023-12-20T16:42:16;7.50;;;1.80;;
51616;SDS011;37697;52.588;13.394;2023-12-20T16:47:41;7.30;;;1.70;;
51616;SDS011;37697;52.588;13.394;2023-12-20T16:53:07;6.10;;;1.50;;
51616;SDS011;37697;52.588;13.394;2023-12-20T16:58:33;3.20;;;1.20;;
51616;SDS011;37697;52.588;13.394;2023-12-20T17:03:59;3.90;;;1.30;;
51616;SDS011;37697;52.588;13.394;2023-12-20T17:09:25;5.50;;;1.50;;
51616;SDS011;37697;52.588;13.394;2023-12-20T17:14:51;6.40;;;1.70;;
51616;SDS011;37697;52.588;13.394;2023-12-20T17:20:16;8.70;;;1.90;;
51616;SDS011;37697;52.588;13.394;2023-12-20T17:25:43;6.60;;;1.60;;
51616;SDS011;37697;52.588;13.394;2023-12-20T17:31:09;7.60;;;2.00;;
51616;SDS011;37697;52.588;13.394;2023-12-20T17:36:34;6.00;;;1.50;;
51616;SDS011;37697;52.588;13.394;2023-12-20T17:42:00;9.10;;;2.20;;
51616;SDS011;37697;52.588;13.394;2023-12-20T17:47:26;7.80;;;1.90;;
51616;SDS011;37697;52.588;13.394;2023-12-20T17:52:53;7.40;;;2.70;;
51616;SDS011;37697;52.588;13.394;2023-12-20T17:58:18;9.70;;;2.50;;
51616;SDS011;37697;52.588;13.394;2023-12-20T18:03:45;7.70;;;2.10;;
51616;SDS011;37697;52.588;13.394;2023-12-20T18:09:11;8.80;;;2.30;;
51616;SDS011;37697;52.588;13.394;2023-12-20T18:14:36;10.10;;;2.30;;
51616;SDS011;37697;52.588;13.394;2023-12-20T18:19:56;11.60;;;2.20;;
51616;SDS011;37697;52.588;13.394;2023-12-20T18:25:23;11.50;;;2.70;;
51616;SDS011;37697;52.588;13.394;2023-12-20T18:30:48;8.40;;;1.90;;
51616;SDS011;37697;52.588;13.394;2023-12-20T18:36:14;6.70;;;2.10;;
51616;SDS011;37697;52.588;13.394;2023-12-20T18:41:41;11.00;;;2.60;;
51616;SDS011;37697;52.588;13.394;2023-12-20T18:47:07;7.20;;;2.40;;
51616;SDS011;37697;52.588;13.394;2023-12-20T18:52:33;7.20;;;1.80;;
51616;SDS011;37697;52.588;13.394;2023-12-20T18:57:58;10.20;;;2.00;;
51616;SDS011;37697;52.588;13.394;2023-12-20T19:03:24;7.20;;;2.10;;
51616;SDS011;37697;52.588;13.394;2023-12-20T19:08:50;11.10;;;1.90;;
51616;SDS011;37697;52.588;13.394;2023-12-20T19:14:16;8.40;;;2.30;;
51616;SDS011;37697;52.588;13.394;2023-12-20T19:19:42;7.50;;;2.10;;
51616;SDS011;37697;52.588;13.394;2023-12-20T19:25:08;6.30;;;1.80;;
51616;SDS011;37697;52.588;13.394;2023-12-20T19:30:34;7.50;;;2.10;;
51616;SDS011;37697;52.588;13.394;2023-12-20T19:36:01;8.80;;;1.80;;
51616;SDS011;37697;52.588;13.394;2023-12-20T19:41:27;9.10;;;2.40;;
51616;SDS011;37697;52.588;13.394;2023-12-20T19:46:52;11.10;;;1.80;;
51616;SDS011;37697;52.588;13.394;2023-12-20T19:52:18;9.10;;;1.70;;
51616;SDS011;37697;52.588;13.394;2023-12-20T19:57:44;15.80;;;2.90;;
51616;SDS011;37697;52.588;13.394;2023-12-20T20:03:10;9.50;;;1.80;;
51616;SDS011;37697;52.588;13.394;2023-12-20T20:08:36;8.90;;;2.50;;
51616;SDS011;37697;52.588;13.394;2023-12-20T20:14:02;8.50;;;2.20;;
51616;SDS011;37697;52.588;13.394;2023-12-20T20:19:27;11.20;;;1.70;;
51616;SDS011;37697;52.588;13.394;2023-12-20T20:24:54;7.10;;;1.70;;
51616;SDS011;37697;52.588;13.394;2023-12-20T20:30:20;6.60;;;1.70;;
51616;SDS011;37697;52.588;13.394;2023-12-20T20:35:46;8.80;;;1.80;;
51616;SDS011;37697;52.588;13.394;2023-12-20T20:41:12;9.00;;;1.50;;
51616;SDS011;37697;52.588;13.394;2023-12-20T20:46:38;6.50;;;1.60;;
51616;SDS011;37697;52.588;13.394;2023-12-20T20:51:55;6.30;;;1.50;;
51616;SDS011;37697;52.588;13.394;2023-12-20T20:57:21;8.30;;;1.70;;
51616;SDS011;37697;52.588;13.394;2023-12-20T21:02:47;9.20;;;2.00;;
51616;SDS011;37697;52.588;13.394;2023-12-20T21:08:13;6.10;;;1.30;;
51616;SDS011;37697;52.588;13.394;2023-12-20T21:13:38;8.00;;;1.70;;
51616;SDS011;37697;52.588;13.394;2023-12-20T21:19:04;6.50;;;1.40;;
51616;SDS011;37697;52.588;13.394;2023-12-20T21:24:30;5.70;;;1.40;;
51616;SDS011;37697;52.588;13.394;2023-12-20T21:29:56;3.70;;;1.20;;
51616;SDS011;37697;52.588;13.394;2023-12-20T21:35:21;6.40;;;1.80;;
51616;SDS011;37697;52.588;13.394;2023-12-20T21:40:48;3.60;;;1.50;;
51616;SDS011;37697;52.588;13.394;2023-12-20T21:46:24;5.20;;;1.20;;
51616;SDS011;37697;52.588;13.394;2023-12-20T21:51:49;4.80;;;1.50;;
51616;SDS011;37697;52.588;13.394;2023-12-20T21:57:15;4.80;;;1.30;;
51616;SDS011;37697;52.588;13.394;2023-12-20T22:02:41;7.10;;;1.50;;
51616;SDS011;37697;52.588;13.394;2023-12-20T22:08:07;2.80;;;1.20;;
51616;SDS011;37697;52.588;13.394;2023-12-20T22:13:33;3.60;;;1.80;;
51616;SDS011;37697;52.588;13.394;2023-12-20T22:18:59;4.90;;;1.40;;
51616;SDS011;37697;52.588;13.394;2023-12-20T22:24:25;4.00;;;1.40;;
51616;SDS011;37697;52.588;13.394;2023-12-20T22:29:51;3.90;;;1.00;;
51616;SDS011;37697;52.588;13.394;2023-12-20T22:35:17;7.40;;;1.50;;
51616;SDS011;37697;52.588;13.394;2023-12-20T22:40:42;4.30;;;1.50;;
51616;SDS011;37697;52.588;13.394;2023-12-20T22:46:08;3.00;;;1.00;;
51616;SDS011;37697;52.588;13.394;2023-12-20T22:51:34;2.90;;;1.00;;
51616;SDS011;37697;52.588;13.394;2023-12-20T22:56:59;4.90;;;1.40;;
51616;SDS011;37697;52.588;13.394;2023-12-20T23:02:25;5.10;;;1.40;;
51616;SDS011;37697;52.588;13.394;2023-12-20T23:07:51;1.90;;;0.90;;
51616;SDS011;37697;52.588;13.394;2023-12-20T23:13:17;3.70;;;0.90;;
51616;SDS011;37697;52.588;13.394;2023-12-20T23:18:43;3.30;;;1.00;;
51616;SDS011;37697;52.588;13.394;2023-12-20T23:24:09;2.60;;;0.80;;
51616;SDS011;37697;52.588;13.394;2023-12-20T23:29:34;2.80;;;1.30;;
51616;SDS011;37697;52.588;13.394;2023-12-20T23:34:59;5.30;;;2.10;;
51616;SDS011;37697;52.588;13.394;2023-12-20T23:40:25;5.30;;;2.60;;
51616;SDS011;37697;52.588;13.394;2023-12-20T23:45:51;6.00;;;2.10;;
51616;SDS011;37697;52.588;13.394;2023-12-20T23:51:17;3.10;;;1.60;;
51616;SDS011;37697;52.588;13.394;2023-12-20T23:56:42;6.00;;;2.20;;
